Time;durP1;ratioP1;P1;durP2;ratioP2;P2;SDS_P1;SDS_P2;PMS_P1;PMS_P2;Temp;Humidity;BMP_temperature;BMP_pressure;BME280_temperature;BME280_humidity;BME280_pressure;Samples;Min_cycle;Max_cycle;Signal;HPM_P1;HPM_P2
2022/07/07 00:02:06;;;;;;;9.80;3.40;;;;;;;;;;7376237;19;20026;-79
2022/07/07 00:04:31;;;;;;;10.43;3.65;;;;;;;;;;7378636;19;20025;-80
2022/07/07 00:06:56;;;;;;;15.27;3.85;;;;;;;;;;7365072;19;20014;-79
2022/07/07 00:09:21;;;;;;;7.93;3.37;;;;;;;;;;7372320;19;20017;-80
2022/07/07 00:11:47;;;;;;;8.17;3.57;;;;;;;;;;7372152;19;20223;-81
2022/07/07 00:14:12;;;;;;;8.23;3.70;;;;;;;;;;7369948;19;19999;-80
2022/07/07 00:16:37;;;;;;;11.27;3.60;;;;;;;;;;7371423;19;20015;-81
2022/07/07 00:19:03;;;;;;;9.43;3.78;;;;;;;;;;7369148;19;20022;-76
2022/07/07 00:21:28;;;;;;;6.30;3.45;;;;;;;;;;7376934;19;20003;-75
2022/07/07 00:23:54;;;;;;;9.63;3.75;;;;;;;;;;7376686;19;20086;-78
2022/07/07 00:26:19;;;;;;;7.25;3.38;;;;;;;;;;7369194;19;20454;-77
2022/07/07 00:28:44;;;;;;;12.05;3.75;;;;;;;;;;7374158;19;20336;-78
2022/07/07 00:31:10;;;;;;;8.57;4.03;;;;;;;;;;7376734;19;20006;-75
2022/07/07 00:33:35;;;;;;;8.18;4.38;;;;;;;;;;7372269;19;20034;-76
2022/07/07 00:36:00;;;;;;;9.90;3.57;;;;;;;;;;7376226;19;20006;-75
2022/07/07 00:38:25;;;;;;;9.57;3.42;;;;;;;;;;7365751;19;20817;-81
2022/07/07 00:40:51;;;;;;;7.13;3.30;;;;;;;;;;7347763;19;20009;-80
2022/07/07 00:43:16;;;;;;;7.57;3.40;;;;;;;;;;7374210;19;21655;-76
2022/07/07 00:45:45;;;;;;;7.95;3.42;;;;;;;;;;7377203;19;20562;-78
2022/07/07 00:48:10;;;;;;;7.35;3.65;;;;;;;;;;7382579;19;20919;-76
2022/07/07 00:50:36;;;;;;;7.63;3.28;;;;;;;;;;7382903;19;20022;-75
2022/07/07 00:53:01;;;;;;;6.35;3.15;;;;;;;;;;7376349;19;20074;-77
2022/07/07 00:55:26;;;;;;;12.52;3.65;;;;;;;;;;7377301;19;19995;-80
2022/07/07 00:57:51;;;;;;;9.30;3.30;;;;;;;;;;7383509;19;20014;-78
2022/07/07 01:00:17;;;;;;;7.63;3.90;;;;;;;;;;7381841;19;20271;-76
2022/07/07 01:02:42;;;;;;;8.85;4.22;;;;;;;;;;7378638;19;20268;-76
2022/07/07 01:05:08;;;;;;;9.73;3.80;;;;;;;;;;7370630;19;20034;-76
2022/07/07 01:07:34;;;;;;;9.73;4.05;;;;;;;;;;7378844;19;20021;-77
2022/07/07 01:10:00;;;;;;;8.10;4.38;;;;;;;;;;7374693;19;20486;-78
2022/07/07 01:12:26;;;;;;;9.30;3.95;;;;;;;;;;7379091;19;20010;-76
2022/07/07 01:14:51;;;;;;;8.75;4.18;;;;;;;;;;7378684;19;20015;-79
2022/07/07 01:17:16;;;;;;;10.07;4.33;;;;;;;;;;7379790;19;20028;-75
2022/07/07 01:19:41;;;;;;;8.73;3.90;;;;;;;;;;7380862;19;20268;-75
2022/07/07 01:22:10;;;;;;;7.53;4.27;;;;;;;;;;7375372;19;20070;-79
2022/07/07 01:24:36;;;;;;;7.45;3.22;;;;;;;;;;7377595;19;20648;-79
2022/07/07 01:27:07;;;;;;;7.38;4.00;;;;;;;;;;7375174;19;20733;-77
2022/07/07 01:29:36;;;;;;;7.90;3.53;;;;;;;;;;7381291;19;19998;-75
2022/07/07 01:32:02;;;;;;;7.72;3.55;;;;;;;;;;7380282;19;19999;-77
2022/07/07 01:34:27;;;;;;;6.47;3.80;;;;;;;;;;7377829;19;20010;-75
2022/07/07 01:36:52;;;;;;;7.25;3.70;;;;;;;;;;7382020;19;20014;-77
2022/07/07 01:39:18;;;;;;;7.00;3.47;;;;;;;;;;7377322;19;20355;-78
2022/07/07 01:41:43;;;;;;;7.30;4.03;;;;;;;;;;7375012;19;20002;-75
2022/07/07 01:44:08;;;;;;;8.00;3.60;;;;;;;;;;7381656;19;20553;-78
2022/07/07 01:46:33;;;;;;;8.67;4.17;;;;;;;;;;7379821;19;20260;-81
2022/07/07 01:48:58;;;;;;;9.70;3.20;;;;;;;;;;7374995;19;20243;-76
2022/07/07 01:51:23;;;;;;;6.30;3.40;;;;;;;;;;7378265;19;20604;-77
2022/07/07 01:53:49;;;;;;;9.05;3.92;;;;;;;;;;7374118;19;20070;-79
2022/07/07 01:56:14;;;;;;;6.60;3.77;;;;;;;;;;7374572;19;20007;-77
2022/07/07 01:58:39;;;;;;;6.50;3.93;;;;;;;;;;7380664;19;20327;-76
2022/07/07 02:01:04;;;;;;;7.68;3.60;;;;;;;;;;7376247;19;20022;-75
2022/07/07 02:03:29;;;;;;;10.47;4.03;;;;;;;;;;7379182;19;20023;-80
2022/07/07 02:05:55;;;;;;;11.75;4.15;;;;;;;;;;7381009;19;20239;-79
2022/07/07 02:08:20;;;;;;;8.95;4.13;;;;;;;;;;7378643;19;20011;-82
2022/07/07 02:13:29;;;;;;;8.55;4.30;;;;;;;;;;7383196;19;20030;-79
2022/07/07 02:15:54;;;;;;;9.93;4.20;;;;;;;;;;7381435;19;20010;-78
2022/07/07 02:18:19;;;;;;;8.20;4.37;;;;;;;;;;7380148;19;20244;-81
2022/07/07 02:20:44;;;;;;;8.10;4.10;;;;;;;;;;7377427;19;20263;-80
2022/07/07 02:23:10;;;;;;;11.47;5.67;;;;;;;;;;7376999;19;20267;-81
2022/07/07 02:25:35;;;;;;;7.88;4.03;;;;;;;;;;7376061;19;21164;-75
2022/07/07 02:28:00;;;;;;;8.80;3.87;;;;;;;;;;7382448;19;20013;-77
2022/07/07 02:30:25;;;;;;;8.80;4.85;;;;;;;;;;7377262;19;20274;-77
2022/07/07 02:32:50;;;;;;;8.47;3.93;;;;;;;;;;7376902;19;20497;-76
2022/07/07 02:35:15;;;;;;;7.70;4.00;;;;;;;;;;7378408;19;20018;-75
2022/07/07 02:37:41;;;;;;;10.80;4.45;;;;;;;;;;7377455;19;20460;-76
2022/07/07 02:40:06;;;;;;;11.33;4.40;;;;;;;;;;7377323;19;20474;-76
2022/07/07 02:42:31;;;;;;;10.73;4.70;;;;;;;;;;7374302;19;20078;-77
2022/07/07 02:44:56;;;;;;;10.23;4.57;;;;;;;;;;7378900;19;20015;-79
2022/07/07 02:47:22;;;;;;;8.45;3.65;;;;;;;;;;7376763;19;20263;-76
2022/07/07 02:49:47;;;;;;;12.20;4.50;;;;;;;;;;7374287;19;20499;-79
2022/07/07 02:52:12;;;;;;;11.27;3.90;;;;;;;;;;7374714;19;20015;-76
2022/07/07 02:54:37;;;;;;;8.43;3.97;;;;;;;;;;7378023;19;20266;-78
2022/07/07 02:57:02;;;;;;;8.48;3.97;;;;;;;;;;7375072;19;20373;-78
2022/07/07 02:59:29;;;;;;;6.55;3.53;;;;;;;;;;7378495;19;20014;-76
2022/07/07 03:01:54;;;;;;;7.28;3.80;;;;;;;;;;7379096;19;20002;-76
2022/07/07 03:04:19;;;;;;;6.72;3.83;;;;;;;;;;7372111;19;20364;-79
2022/07/07 03:06:44;;;;;;;6.85;4.03;;;;;;;;;;7376764;19;20841;-76
2022/07/07 03:09:09;;;;;;;6.57;4.20;;;;;;;;;;7376449;19;20036;-78
2022/07/07 03:11:34;;;;;;;6.57;3.47;;;;;;;;;;7373701;19;20007;-75
2022/07/07 03:14:00;;;;;;;8.73;4.07;;;;;;;;;;7379333;19;20406;-79
2022/07/07 03:16:25;;;;;;;8.43;3.73;;;;;;;;;;7375076;19;20022;-78
2022/07/07 03:18:50;;;;;;;8.13;3.70;;;;;;;;;;7374663;19;20536;-76
2022/07/07 03:21:15;;;;;;;10.10;3.50;;;;;;;;;;7379665;19;20254;-77
2022/07/07 03:23:40;;;;;;;7.05;3.47;;;;;;;;;;7373814;19;20454;-78
2022/07/07 03:26:06;;;;;;;8.77;3.70;;;;;;;;;;7371346;19;20576;-75
2022/07/07 03:28:32;;;;;;;8.43;4.07;;;;;;;;;;7378266;19;20292;-81
2022/07/07 03:30:57;;;;;;;9.35;4.35;;;;;;;;;;7376482;19;20019;-78
2022/07/07 03:33:22;;;;;;;8.53;3.60;;;;;;;;;;7373469;19;20014;-80
2022/07/07 03:35:47;;;;;;;10.27;4.80;;;;;;;;;;7376847;19;20877;-78
2022/07/07 03:38:13;;;;;;;10.57;4.10;;;;;;;;;;7376570;19;20030;-78
2022/07/07 03:40:38;;;;;;;8.10;4.03;;;;;;;;;;7367922;19;20243;-76
2022/07/07 03:43:03;;;;;;;7.47;3.90;;;;;;;;;;7376201;19;20016;-77
2022/07/07 03:45:28;;;;;;;6.63;3.75;;;;;;;;;;7374426;19;20042;-79
2022/07/07 03:47:54;;;;;;;8.63;3.47;;;;;;;;;;7375532;19;20462;-75
2022/07/07 03:50:19;;;;;;;8.30;4.93;;;;;;;;;;7371627;19;20461;-78
2022/07/07 03:52:44;;;;;;;8.70;4.80;;;;;;;;;;7378153;19;20469;-77
2022/07/07 03:55:09;;;;;;;13.93;5.03;;;;;;;;;;7374161;19;20254;-76
2022/07/07 03:57:35;;;;;;;8.10;4.05;;;;;;;;;;7373188;19;20259;-81
2022/07/07 04:00:01;;;;;;;7.43;3.90;;;;;;;;;;7373225;19;20017;-78
2022/07/07 04:02:26;;;;;;;10.05;4.72;;;;;;;;;;7370265;19;20469;-77
2022/07/07 04:04:52;;;;;;;10.60;4.30;;;;;;;;;;7371728;19;20010;-78
2022/07/07 04:07:17;;;;;;;13.85;5.80;;;;;;;;;;7368814;19;20259;-82
2022/07/07 04:09:42;;;;;;;8.52;4.32;;;;;;;;;;7371975;19;20014;-75
2022/07/07 04:12:08;;;;;;;13.77;5.47;;;;;;;;;;7365210;19;20006;-80
2022/07/07 04:14:33;;;;;;;9.02;5.50;;;;;;;;;;7375943;19;20252;-77
2022/07/07 04:16:58;;;;;;;8.68;4.70;;;;;;;;;;7372035;19;20010;-76
2022/07/07 04:19:24;;;;;;;7.93;4.33;;;;;;;;;;7374390;19;20006;-76
2022/07/07 04:33:06;;;;;;;8.25;4.63;;;;;;;;;;7310994;19;20267;-73
2022/07/07 04:35:31;;;;;;;11.23;4.82;;;;;;;;;;7363640;19;20041;-77
2022/07/07 04:37:57;;;;;;;9.63;5.43;;;;;;;;;;7377399;19;20424;-75
2022/07/07 04:40:22;;;;;;;10.65;5.13;;;;;;;;;;7359664;19;20475;-75
2022/07/07 04:42:47;;;;;;;8.07;4.32;;;;;;;;;;7371982;19;20566;-75
2022/07/07 04:45:12;;;;;;;10.35;5.70;;;;;;;;;;7378594;19;20422;-78
2022/07/07 04:47:41;;;;;;;12.83;5.47;;;;;;;;;;7371096;19;20015;-78
2022/07/07 04:50:07;;;;;;;12.73;6.35;;;;;;;;;;7366205;19;21030;-77
2022/07/07 04:52:32;;;;;;;8.73;5.40;;;;;;;;;;7374092;19;20025;-76
2022/07/07 04:54:58;;;;;;;11.03;5.57;;;;;;;;;;7375138;19;19995;-74
2022/07/07 04:57:23;;;;;;;11.10;5.40;;;;;;;;;;7366476;19;20011;-77
2022/07/07 04:59:48;;;;;;;11.80;5.60;;;;;;;;;;7373175;19;20260;-76
2022/07/07 05:02:13;;;;;;;9.50;5.23;;;;;;;;;;7374076;19;20272;-77
2022/07/07 05:04:38;;;;;;;8.83;5.80;;;;;;;;;;7365987;19;20421;-75
2022/07/07 05:07:04;;;;;;;10.55;5.85;;;;;;;;;;7359840;19;20008;-76
2022/07/07 05:09:29;;;;;;;9.05;5.22;;;;;;;;;;7370341;19;20026;-73
2022/07/07 05:11:54;;;;;;;8.37;5.30;;;;;;;;;;7368084;19;19999;-73
2022/07/07 05:14:19;;;;;;;9.60;5.27;;;;;;;;;;7371675;19;20011;-77
2022/07/07 05:16:45;;;;;;;10.93;5.50;;;;;;;;;;7373927;19;20242;-73
2022/07/07 05:19:10;;;;;;;10.18;5.28;;;;;;;;;;7371279;19;20257;-75
2022/07/07 05:21:35;;;;;;;10.25;5.47;;;;;;;;;;7370134;19;19994;-75
2022/07/07 05:24:00;;;;;;;10.17;5.50;;;;;;;;;;7374505;19;20346;-78
2022/07/07 05:26:25;;;;;;;9.37;5.57;;;;;;;;;;7369836;19;20022;-77
2022/07/07 05:28:50;;;;;;;11.27;6.10;;;;;;;;;;7382402;19;20011;-74
2022/07/07 05:31:16;;;;;;;9.73;6.20;;;;;;;;;;7381103;19;20934;-77
2022/07/07 05:33:41;;;;;;;15.23;6.47;;;;;;;;;;7379924;19;20678;-74
2022/07/07 05:36:07;;;;;;;11.90;6.47;;;;;;;;;;7369814;19;20020;-75
2022/07/07 05:38:32;;;;;;;11.27;5.97;;;;;;;;;;7377611;19;20022;-75
2022/07/07 05:40:58;;;;;;;10.95;6.00;;;;;;;;;;7371965;19;20014;-73
2022/07/07 05:43:23;;;;;;;12.77;6.65;;;;;;;;;;7380533;19;20013;-76
2022/07/07 05:45:48;;;;;;;11.05;6.63;;;;;;;;;;7378488;19;20024;-75
2022/07/07 05:48:14;;;;;;;18.90;7.20;;;;;;;;;;7382655;19;20010;-76
2022/07/07 05:50:39;;;;;;;11.75;6.40;;;;;;;;;;7374435;19;20014;-77
2022/07/07 05:53:04;;;;;;;10.80;6.27;;;;;;;;;;7381961;19;19998;-75
2022/07/07 05:55:29;;;;;;;9.35;6.07;;;;;;;;;;7379837;19;20755;-75
2022/07/07 05:57:56;;;;;;;9.10;5.88;;;;;;;;;;7380446;19;20015;-75
2022/07/07 06:00:22;;;;;;;9.32;5.45;;;;;;;;;;7380966;19;20006;-75
2022/07/07 06:02:47;;;;;;;13.55;7.00;;;;;;;;;;7384187;19;20021;-78
2022/07/07 06:05:13;;;;;;;9.10;6.10;;;;;;;;;;7375539;19;20010;-76
2022/07/07 06:07:38;;;;;;;13.45;6.15;;;;;;;;;;7378794;19;20801;-76
2022/07/07 06:10:04;;;;;;;10.07;6.55;;;;;;;;;;7373809;19;20035;-73
2022/07/07 06:12:29;;;;;;;12.65;6.22;;;;;;;;;;7354671;19;20025;-76
2022/07/07 06:14:54;;;;;;;12.80;6.60;;;;;;;;;;7379148;19;20368;-76
2022/07/07 06:17:19;;;;;;;13.17;6.33;;;;;;;;;;7380441;19;20003;-77
2022/07/07 06:19:44;;;;;;;13.43;6.60;;;;;;;;;;7379432;19;20007;-78
2022/07/07 06:22:09;;;;;;;9.83;6.00;;;;;;;;;;7379641;19;20774;-75
2022/07/07 06:24:35;;;;;;;11.73;7.47;;;;;;;;;;7384952;19;20795;-79
2022/07/07 06:27:00;;;;;;;10.57;7.07;;;;;;;;;;7379175;19;20290;-75
2022/07/07 06:29:25;;;;;;;12.05;7.68;;;;;;;;;;7383345;19;20648;-78
2022/07/07 06:31:50;;;;;;;12.88;6.57;;;;;;;;;;7384581;19;20036;-76
2022/07/07 06:34:15;;;;;;;11.43;6.20;;;;;;;;;;7375306;19;20019;-78
2022/07/07 06:36:41;;;;;;;12.80;7.30;;;;;;;;;;7382642;19;20024;-79
2022/07/07 06:39:06;;;;;;;13.00;7.10;;;;;;;;;;7379026;19;20021;-75
2022/07/07 06:41:35;;;;;;;10.82;6.82;;;;;;;;;;7378502;19;20703;-77
2022/07/07 06:44:01;;;;;;;11.77;7.35;;;;;;;;;;7381626;19;20010;-75
2022/07/07 06:46:26;;;;;;;11.88;6.95;;;;;;;;;;7378210;19;20006;-78
2022/07/07 06:48:51;;;;;;;15.77;6.90;;;;;;;;;;7380300;19;20446;-75
2022/07/07 06:51:16;;;;;;;13.80;7.40;;;;;;;;;;7383674;19;20248;-74
2022/07/07 06:53:41;;;;;;;14.07;7.70;;;;;;;;;;7378708;19;20354;-79
2022/07/07 06:56:07;;;;;;;15.57;7.87;;;;;;;;;;7377686;19;20006;-81
2022/07/07 06:58:32;;;;;;;12.88;8.02;;;;;;;;;;7381279;19;20020;-77
2022/07/07 07:00:57;;;;;;;11.85;8.32;;;;;;;;;;7379212;19;20009;-75
2022/07/07 07:03:22;;;;;;;14.10;9.18;;;;;;;;;;7376184;19;20095;-80
2022/07/07 07:05:47;;;;;;;13.10;9.15;;;;;;;;;;7378401;19;20383;-77
2022/07/07 07:08:13;;;;;;;10.90;7.60;;;;;;;;;;7375528;19;20018;-75
2022/07/07 07:10:38;;;;;;;13.52;7.65;;;;;;;;;;7371981;19;20006;-79
2022/07/07 07:13:03;;;;;;;10.52;7.75;;;;;;;;;;7366635;19;20006;-75
2022/07/07 07:15:28;;;;;;;13.75;9.10;;;;;;;;;;7375984;19;20073;-77
2022/07/07 07:17:53;;;;;;;10.50;7.00;;;;;;;;;;7366486;19;20010;-76
2022/07/07 07:20:19;;;;;;;13.30;7.80;;;;;;;;;;7378793;19;20229;-78
2022/07/07 07:22:44;;;;;;;12.63;8.43;;;;;;;;;;7382974;19;20258;-75
2022/07/07 07:25:09;;;;;;;11.40;7.67;;;;;;;;;;7384956;19;20012;-76
2022/07/07 07:27:35;;;;;;;14.43;8.43;;;;;;;;;;7379037;19;20017;-78
2022/07/07 07:30:00;;;;;;;10.90;8.68;;;;;;;;;;7383641;19;19991;-75
2022/07/07 07:32:26;;;;;;;13.50;8.55;;;;;;;;;;7379550;19;20608;-76
2022/07/07 07:34:51;;;;;;;11.80;8.50;;;;;;;;;;7384047;19;20011;-75
2022/07/07 07:37:16;;;;;;;11.60;7.57;;;;;;;;;;7383386;19;20014;-78
2022/07/07 07:39:41;;;;;;;13.40;7.13;;;;;;;;;;7379516;19;20247;-76
2022/07/07 07:42:06;;;;;;;13.43;8.20;;;;;;;;;;7378772;19;20477;-76
2022/07/07 07:47:15;;;;;;;9.05;5.68;;;;;;;;;;7382099;19;20038;-75
2022/07/07 07:49:41;;;;;;;9.43;4.70;;;;;;;;;;7383070;19;20018;-75
2022/07/07 07:52:06;;;;;;;7.70;4.40;;;;;;;;;;7381157;19;20267;-73
2022/07/07 07:54:31;;;;;;;8.57;4.70;;;;;;;;;;7376347;19;20260;-75
2022/07/07 07:56:57;;;;;;;8.67;4.30;;;;;;;;;;7379935;19;20081;-77
2022/07/07 07:59:22;;;;;;;7.35;4.25;;;;;;;;;;7381591;19;20240;-76
2022/07/07 08:01:47;;;;;;;8.37;4.70;;;;;;;;;;7384823;19;20070;-77
2022/07/07 08:04:12;;;;;;;9.52;5.15;;;;;;;;;;7384329;19;20439;-75
2022/07/07 08:06:37;;;;;;;10.48;4.75;;;;;;;;;;7377080;19;20041;-75
2022/07/07 08:09:03;;;;;;;11.05;5.43;;;;;;;;;;7382138;19;20026;-75
2022/07/07 08:11:28;;;;;;;9.55;5.20;;;;;;;;;;7380724;19;20006;-75
2022/07/07 08:13:53;;;;;;;8.20;5.40;;;;;;;;;;7383796;19;20380;-76
2022/07/07 08:16:18;;;;;;;8.93;6.07;;;;;;;;;;7383652;19;20250;-76
2022/07/07 08:18:44;;;;;;;10.63;5.97;;;;;;;;;;7383609;19;20013;-77
2022/07/07 08:21:09;;;;;;;7.43;4.93;;;;;;;;;;7380109;19;20002;-75
2022/07/07 08:23:34;;;;;;;8.52;5.30;;;;;;;;;;7380524;19;20018;-74
2022/07/07 08:26:00;;;;;;;6.43;4.00;;;;;;;;;;7378721;19;20003;-75
2022/07/07 08:28:25;;;;;;;4.82;2.88;;;;;;;;;;7382950;19;20258;-76
2022/07/07 08:30:51;;;;;;;6.72;2.80;;;;;;;;;;7383941;19;20427;-76
2022/07/07 08:33:16;;;;;;;5.83;3.10;;;;;;;;;;7378211;19;20038;-77
2022/07/07 08:35:41;;;;;;;5.70;2.50;;;;;;;;;;7380971;19;20262;-75
2022/07/07 08:38:06;;;;;;;4.93;2.30;;;;;;;;;;7380779;19;20276;-78
2022/07/07 08:40:32;;;;;;;5.38;2.40;;;;;;;;;;7379417;19;20434;-76
2022/07/07 08:42:57;;;;;;;4.30;2.00;;;;;;;;;;7380537;19;20045;-73
2022/07/07 08:45:22;;;;;;;5.82;2.10;;;;;;;;;;7379664;19;20623;-77
2022/07/07 08:47:48;;;;;;;4.20;2.13;;;;;;;;;;7381056;19;20010;-77
2022/07/07 08:50:13;;;;;;;5.63;1.75;;;;;;;;;;7381611;19;20549;-77
2022/07/07 08:52:38;;;;;;;4.30;2.00;;;;;;;;;;7379066;19;20006;-75
2022/07/07 08:55:04;;;;;;;3.50;1.60;;;;;;;;;;7379766;19;20006;-77
2022/07/07 08:57:29;;;;;;;3.90;1.70;;;;;;;;;;7377111;19;20037;-76
2022/07/07 08:59:56;;;;;;;3.70;1.55;;;;;;;;;;7379129;19;20006;-78
2022/07/07 09:02:22;;;;;;;4.22;1.75;;;;;;;;;;7386750;19;20002;-76
2022/07/07 09:04:47;;;;;;;4.13;1.70;;;;;;;;;;7387935;19;20026;-75
2022/07/07 09:07:12;;;;;;;2.72;1.17;;;;;;;;;;7383891;19;20242;-77
2022/07/07 09:09:49;;;;;;;3.47;1.13;;;;;;;;;;7388603;19;20014;-75
2022/07/07 09:12:15;;;;;;;4.05;1.13;;;;;;;;;;7385625;19;20011;-78
2022/07/07 09:14:50;;;;;;;3.05;1.25;;;;;;;;;;7388573;19;20018;-75
2022/07/07 09:17:16;;;;;;;4.53;1.50;;;;;;;;;;7389746;19;20018;-75
2022/07/07 09:19:42;;;;;;;4.28;1.80;;;;;;;;;;7388468;19;20034;-76
2022/07/07 09:22:08;;;;;;;4.18;1.45;;;;;;;;;;7385586;19;20326;-76
2022/07/07 09:24:33;;;;;;;3.92;1.50;;;;;;;;;;7386681;19;20070;-77
2022/07/07 09:26:58;;;;;;;3.55;1.40;;;;;;;;;;7383971;19;20002;-74
2022/07/07 09:29:24;;;;;;;3.33;1.47;;;;;;;;;;7386749;19;20013;-75
2022/07/07 09:31:52;;;;;;;4.78;1.40;;;;;;;;;;7386165;19;19995;-76
2022/07/07 09:34:18;;;;;;;3.58;1.30;;;;;;;;;;7388138;19;20096;-76
2022/07/07 09:39:46;;;;;;;6.00;1.60;;;;;;;;;;7384898;19;20031;-77
2022/07/07 09:42:23;;;;;;;3.67;1.20;;;;;;;;;;7385115;19;19990;-75
2022/07/07 09:44:53;;;;;;;3.75;1.63;;;;;;;;;;7387579;19;20028;-78
2022/07/07 09:47:20;;;;;;;4.63;1.50;;;;;;;;;;7387391;19;20019;-76
2022/07/07 09:49:56;;;;;;;4.30;1.40;;;;;;;;;;7384201;19;20026;-77
2022/07/07 09:52:21;;;;;;;3.40;1.50;;;;;;;;;;7386886;19;20335;-77
2022/07/07 09:54:48;;;;;;;8.37;1.77;;;;;;;;;;7388076;19;20017;-77
2022/07/07 09:57:13;;;;;;;7.22;1.38;;;;;;;;;;7384250;19;20302;-77
2022/07/07 09:59:41;;;;;;;5.78;1.90;;;;;;;;;;7387810;19;20022;-77
2022/07/07 10:02:06;;;;;;;4.25;2.00;;;;;;;;;;7387811;19;20361;-76
2022/07/07 10:04:32;;;;;;;6.22;2.20;;;;;;;;;;7384046;19;20034;-77
2022/07/07 10:06:59;;;;;;;5.88;2.20;;;;;;;;;;7383430;19;20003;-75
2022/07/07 10:09:25;;;;;;;5.95;2.40;;;;;;;;;;7387407;19;20019;-78
2022/07/07 10:11:54;;;;;;;5.32;2.42;;;;;;;;;;7383011;19;20019;-77
2022/07/07 10:14:22;;;;;;;5.40;2.33;;;;;;;;;;7387215;19;20029;-74
2022/07/07 10:16:48;;;;;;;7.13;2.50;;;;;;;;;;7387922;19;20022;-76
2022/07/07 10:19:14;;;;;;;6.60;2.72;;;;;;;;;;7384438;19;20034;-77
2022/07/07 10:21:41;;;;;;;7.20;2.97;;;;;;;;;;7388812;19;20014;-76
2022/07/07 10:24:06;;;;;;;7.15;2.72;;;;;;;;;;7387378;19;20014;-74
2022/07/07 10:26:43;;;;;;;7.60;2.53;;;;;;;;;;7381996;19;20010;-77
2022/07/07 10:29:08;;;;;;;5.50;2.40;;;;;;;;;;7387414;19;20011;-78
2022/07/07 10:31:34;;;;;;;4.88;2.80;;;;;;;;;;7385014;19;20524;-76
2022/07/07 10:34:01;;;;;;;5.65;2.42;;;;;;;;;;7387824;19;20011;-76
2022/07/07 10:36:26;;;;;;;5.38;2.20;;;;;;;;;;7382825;19;20010;-75
2022/07/07 10:38:52;;;;;;;6.53;2.20;;;;;;;;;;7377651;19;20003;-75
2022/07/07 10:41:23;;;;;;;8.85;2.17;;;;;;;;;;7383208;19;20020;-74
2022/07/07 10:43:53;;;;;;;5.55;2.10;;;;;;;;;;7386385;19;20026;-76
2022/07/07 10:46:18;;;;;;;6.63;1.42;;;;;;;;;;7387250;19;20038;-77
2022/07/07 10:48:45;;;;;;;5.38;1.83;;;;;;;;;;7386067;19;20003;-76
2022/07/07 10:51:20;;;;;;;3.92;1.40;;;;;;;;;;7380968;19;20028;-74
2022/07/07 10:53:56;;;;;;;3.72;1.50;;;;;;;;;;7384654;19;20002;-75
2022/07/07 10:56:21;;;;;;;2.88;1.13;;;;;;;;;;7383009;19;20019;-75
2022/07/07 10:58:57;;;;;;;5.47;1.60;;;;;;;;;;7385258;19;20520;-77
2022/07/07 11:01:23;;;;;;;4.40;1.50;;;;;;;;;;7385151;19;20010;-76
2022/07/07 11:03:48;;;;;;;6.45;1.40;;;;;;;;;;7386583;19;20011;-75
2022/07/07 11:06:13;;;;;;;5.35;1.45;;;;;;;;;;7380307;19;20386;-76
2022/07/07 11:08:39;;;;;;;4.20;1.50;;;;;;;;;;7385128;19;20755;-76
2022/07/07 11:11:05;;;;;;;4.18;1.33;;;;;;;;;;7378683;19;19997;-76
2022/07/07 11:13:31;;;;;;;4.18;1.40;;;;;;;;;;7383152;19;20017;-77
2022/07/07 11:16:17;;;;;;;2.78;1.13;;;;;;;;;;7386382;19;20018;-73
2022/07/07 11:18:46;;;;;;;5.38;1.58;;;;;;;;;;7379977;19;20018;-77
2022/07/07 11:21:11;;;;;;;4.05;1.55;;;;;;;;;;7385055;19;20009;-77
2022/07/07 11:23:42;;;;;;;3.95;1.65;;;;;;;;;;7382669;19;20898;-77
2022/07/07 11:26:08;;;;;;;4.72;1.45;;;;;;;;;;7380333;19;20293;-75
2022/07/07 11:28:35;;;;;;;5.60;1.45;;;;;;;;;;7383396;19;20038;-77
2022/07/07 11:31:01;;;;;;;6.13;1.30;;;;;;;;;;7379027;19;20303;-75
2022/07/07 11:33:26;;;;;;;7.10;1.10;;;;;;;;;;7382504;19;20018;-75
2022/07/07 11:35:51;;;;;;;3.70;1.07;;;;;;;;;;7380318;19;20428;-76
2022/07/07 11:38:17;;;;;;;4.03;1.03;;;;;;;;;;7375017;19;20248;-74
2022/07/07 11:40:45;;;;;;;5.50;1.20;;;;;;;;;;7382271;19;19995;-77
2022/07/07 11:43:20;;;;;;;2.25;0.95;;;;;;;;;;7380571;19;20280;-77
2022/07/07 11:45:45;;;;;;;3.38;0.90;;;;;;;;;;7385469;19;20435;-78
2022/07/07 11:48:10;;;;;;;4.00;0.85;;;;;;;;;;7385071;19;20114;-77
2022/07/07 11:50:35;;;;;;;5.97;1.30;;;;;;;;;;7381410;19;20438;-74
2022/07/07 11:53:01;;;;;;;3.65;1.08;;;;;;;;;;7383788;19;20082;-75
2022/07/07 11:55:27;;;;;;;4.95;1.10;;;;;;;;;;7380631;19;20014;-75
2022/07/07 11:57:56;;;;;;;2.92;0.90;;;;;;;;;;7383539;19;20005;-74
2022/07/07 12:00:24;;;;;;;3.67;1.17;;;;;;;;;;7384769;19;20018;-77
2022/07/07 12:02:50;;;;;;;2.55;1.00;;;;;;;;;;7383784;19;20015;-77
2022/07/07 12:05:16;;;;;;;3.88;1.10;;;;;;;;;;7381592;19;20025;-77
2022/07/07 12:07:43;;;;;;;5.18;1.20;;;;;;;;;;7380862;19;20010;-76
2022/07/07 12:10:38;;;;;;;7.22;1.25;;;;;;;;;;7383179;19;20006;-75
2022/07/07 12:13:07;;;;;;;5.38;1.30;;;;;;;;;;7380369;19;20019;-77
2022/07/07 12:15:38;;;;;;;6.25;1.25;;;;;;;;;;7384665;19;20067;-75
2022/07/07 12:18:05;;;;;;;6.22;1.63;;;;;;;;;;7383922;19;20014;-75
2022/07/07 12:20:30;;;;;;;5.20;1.20;;;;;;;;;;7380047;19;20332;-75
2022/07/07 12:22:57;;;;;;;6.75;1.35;;;;;;;;;;7381428;19;20010;-75
2022/07/07 12:25:40;;;;;;;8.77;1.50;;;;;;;;;;7381671;19;20017;-77
2022/07/07 12:28:06;;;;;;;6.93;1.57;;;;;;;;;;7382482;19;19999;-74
2022/07/07 12:30:33;;;;;;;5.13;1.08;;;;;;;;;;7383578;19;20461;-75
2022/07/07 12:32:58;;;;;;;5.13;1.88;;;;;;;;;;7377112;19;20022;-77
2022/07/07 12:35:31;;;;;;;4.30;1.30;;;;;;;;;;7384638;19;20006;-75
2022/07/07 12:37:58;;;;;;;8.00;1.50;;;;;;;;;;7383031;19;20018;-73
2022/07/07 12:40:24;;;;;;;10.68;1.90;;;;;;;;;;7387750;19;20375;-77
2022/07/07 12:42:49;;;;;;;4.65;1.77;;;;;;;;;;7388187;19;20438;-76
2022/07/07 12:45:15;;;;;;;7.18;1.70;;;;;;;;;;7390186;19;20014;-77
2022/07/07 12:47:48;;;;;;;9.25;1.90;;;;;;;;;;7387828;19;20032;-75
2022/07/07 12:50:13;;;;;;;5.18;1.80;;;;;;;;;;7384912;19;20040;-76
2022/07/07 12:52:38;;;;;;;4.75;1.80;;;;;;;;;;7390058;19;20007;-77
2022/07/07 12:55:11;;;;;;;5.90;2.17;;;;;;;;;;7389898;19;20022;-77
2022/07/07 12:57:36;;;;;;;6.60;2.17;;;;;;;;;;7387484;19;20030;-77
2022/07/07 13:00:01;;;;;;;6.63;2.10;;;;;;;;;;7389549;19;20376;-77
2022/07/07 13:02:26;;;;;;;5.07;2.03;;;;;;;;;;7389183;19;20018;-74
2022/07/07 13:04:53;;;;;;;3.60;1.97;;;;;;;;;;7386472;19;19998;-76
2022/07/07 13:07:18;;;;;;;7.30;1.90;;;;;;;;;;7373928;19;20454;-76
2022/07/07 13:09:44;;;;;;;4.53;1.85;;;;;;;;;;7376280;19;19999;-76
2022/07/07 13:12:10;;;;;;;8.52;2.00;;;;;;;;;;7383872;19;20002;-78
2022/07/07 13:14:35;;;;;;;5.35;2.30;;;;;;;;;;7373065;19;20018;-75
2022/07/07 13:17:00;;;;;;;6.40;2.13;;;;;;;;;;7369505;19;20073;-73
2022/07/07 13:19:25;;;;;;;5.47;2.67;;;;;;;;;;7357903;19;20767;-74
2022/07/07 13:21:51;;;;;;;4.97;2.50;;;;;;;;;;7383790;19;19999;-75
2022/07/07 13:24:16;;;;;;;5.90;2.55;;;;;;;;;;7381979;19;20015;-77
2022/07/07 13:26:41;;;;;;;8.52;3.10;;;;;;;;;;7379418;19;20011;-76
2022/07/07 13:29:07;;;;;;;6.38;2.47;;;;;;;;;;7386733;19;20010;-76
2022/07/07 13:31:35;;;;;;;5.68;2.80;;;;;;;;;;7387551;19;20018;-76
2022/07/07 13:34:00;;;;;;;6.95;2.65;;;;;;;;;;7383865;19;20006;-75
2022/07/07 13:36:26;;;;;;;5.13;2.78;;;;;;;;;;7370889;19;19998;-75
2022/07/07 13:38:52;;;;;;;4.93;2.57;;;;;;;;;;7375366;19;20097;-79
2022/07/07 13:41:17;;;;;;;7.15;3.00;;;;;;;;;;7373762;19;20313;-75
2022/07/07 13:43:42;;;;;;;7.13;3.40;;;;;;;;;;7380721;19;20372;-74
2022/07/07 13:46:08;;;;;;;9.48;3.47;;;;;;;;;;7373096;19;20014;-76
2022/07/07 13:48:33;;;;;;;5.80;2.70;;;;;;;;;;7378774;19;20055;-77
2022/07/07 13:50:58;;;;;;;5.40;2.80;;;;;;;;;;7378641;19;20478;-76
2022/07/07 13:53:23;;;;;;;7.83;3.03;;;;;;;;;;7380099;19;20006;-75
2022/07/07 13:55:49;;;;;;;5.93;2.90;;;;;;;;;;7377399;19;20379;-75
2022/07/07 13:58:14;;;;;;;6.37;2.53;;;;;;;;;;7384552;19;20034;-77
2022/07/07 14:00:39;;;;;;;8.18;2.47;;;;;;;;;;7379189;19;20272;-77
2022/07/07 14:03:04;;;;;;;6.78;2.70;;;;;;;;;;7381720;19;20013;-76
2022/07/07 14:05:31;;;;;;;7.63;2.30;;;;;;;;;;7377542;19;19998;-76
2022/07/07 14:07:56;;;;;;;6.05;2.35;;;;;;;;;;7367250;19;20006;-74
2022/07/07 14:10:21;;;;;;;5.55;2.75;;;;;;;;;;7373531;19;20014;-75
2022/07/07 14:12:47;;;;;;;13.52;3.50;;;;;;;;;;7384104;19;20018;-77
2022/07/07 14:15:12;;;;;;;7.20;2.78;;;;;;;;;;7385531;19;20355;-76
2022/07/07 14:17:37;;;;;;;14.57;3.37;;;;;;;;;;7375058;19;20027;-74
2022/07/07 14:20:03;;;;;;;5.95;2.90;;;;;;;;;;7380315;19;20010;-77
2022/07/07 14:22:29;;;;;;;6.75;3.03;;;;;;;;;;7379901;19;19999;-77
2022/07/07 14:24:54;;;;;;;8.32;3.50;;;;;;;;;;7377308;19;20473;-76
2022/07/07 14:27:19;;;;;;;6.68;3.42;;;;;;;;;;7362409;19;20002;-74
2022/07/07 14:29:45;;;;;;;14.68;4.20;;;;;;;;;;7373013;19;20384;-74
2022/07/07 14:32:10;;;;;;;8.43;3.40;;;;;;;;;;7373109;19;20459;-77
2022/07/07 14:34:36;;;;;;;7.45;3.33;;;;;;;;;;7359490;19;20691;-74
2022/07/07 14:37:01;;;;;;;8.70;2.95;;;;;;;;;;7362921;19;20275;-77
2022/07/07 14:39:26;;;;;;;11.33;3.37;;;;;;;;;;7365409;19;20010;-76
2022/07/07 14:41:52;;;;;;;10.93;3.83;;;;;;;;;;7366708;19;20545;-75
2022/07/07 14:44:19;;;;;;;16.17;4.80;;;;;;;;;;7374557;19;20014;-76
2022/07/07 14:46:44;;;;;;;8.32;3.45;;;;;;;;;;7353387;19;19999;-75
2022/07/07 14:49:10;;;;;;;11.88;4.35;;;;;;;;;;7373392;19;20430;-78
2022/07/07 14:51:35;;;;;;;12.03;4.33;;;;;;;;;;7379747;19;20099;-76